Masjed Soleyman, Iran
Current Conditions -  °F | °C
As of 4:00 AM on Wednesday 26 Nov 2014 (Local Time) from OIAW Reporting Station
Haze Haze  
Wind Chill: 16°   Ceiling: Unl
Heat Index: 16°   Visibility: 1.2mi
Dew Point: 15°   Wind: 5mph
Humidity: 94%   Direction: 260°W
Pressure: 29.94"   Gusts: NA
Location:  31.94°N, 49.31°E
Report Text: OIAW 260100Z 26004KT 2000 BR SCT010 16/15 Q1014
Loading
Personal Weather Stations






























Interactive Weather Map New forecast layout! Learn more

10-Day Weather Forecast

Advertisements
Track Severe Weather on mobile